Time;durP1;ratioP1;P1;durP2;ratioP2;P2;SDS_P1;SDS_P2;PMS_P1;PMS_P2;Temp;Humidity;BMP_temperature;BMP_pressure;BME280_temperature;BME280_humidity;BME280_pressure;Samples;Min_cycle;Max_cycle;Signal;HPM_P1;HPM_P2
2023/07/28 00:02:02;;;;;;;1.88;1.48;;;19.10;99.90;;;;;;5036768;28;20214;-74
2023/07/28 00:04:29;;;;;;;1.60;1.50;;;19.10;99.90;;;;;;5034703;28;20214;-75
2023/07/28 00:06:56;;;;;;;1.40;1.27;;;19.00;99.90;;;;;;5034271;28;20222;-75
2023/07/28 00:09:23;;;;;;;1.58;1.48;;;19.00;99.90;;;;;;5038308;28;20187;-74
2023/07/28 00:11:52;;;;;;;1.70;1.60;;;19.00;99.90;;;;;;5032936;28;20218;-74
2023/07/28 00:14:19;;;;;;;4.32;1.85;;;19.00;99.90;;;;;;5035824;28;20195;-73
2023/07/28 00:16:46;;;;;;;1.58;1.48;;;18.90;99.90;;;;;;5032901;28;20196;-75
2023/07/28 00:19:13;;;;;;;1.73;1.63;;;18.80;99.90;;;;;;5039002;28;20288;-74
2023/07/28 00:21:40;;;;;;;1.50;1.40;;;18.70;99.90;;;;;;5033436;28;20224;-75
2023/07/28 00:24:07;;;;;;;1.83;1.35;;;18.60;99.90;;;;;;5032241;28;20223;-73
2023/07/28 00:26:34;;;;;;;1.55;1.30;;;18.50;99.90;;;;;;5032538;28;20644;-74
2023/07/28 00:29:06;;;;;;;1.55;1.27;;;18.50;99.90;;;;;;5033610;28;20233;-74
2023/07/28 00:31:33;;;;;;;1.80;1.70;;;18.50;99.90;;;;;;5035538;28;20222;-73
2023/07/28 00:34:00;;;;;;;1.42;1.33;;;18.60;99.90;;;;;;5039645;28;20842;-74
2023/07/28 00:36:27;;;;;;;1.45;1.35;;;18.60;99.90;;;;;;5034018;28;20281;-74
2023/07/28 00:38:54;;;;;;;1.10;1.10;;;18.70;99.90;;;;;;5035055;28;20203;-74
2023/07/28 00:41:21;;;;;;;1.38;1.27;;;18.70;99.90;;;;;;5038161;28;22678;-74
2023/07/28 00:43:48;;;;;;;1.38;1.27;;;18.70;99.90;;;;;;5034641;28;20270;-75
2023/07/28 00:46:17;;;;;;;1.83;1.45;;;18.80;99.90;;;;;;5037101;28;20252;-75
2023/07/28 00:48:44;;;;;;;1.30;1.20;;;18.80;99.90;;;;;;5032948;28;20199;-74
2023/07/28 00:51:12;;;;;;;1.60;1.50;;;18.80;99.90;;;;;;5033525;28;20242;-76
2023/07/28 00:53:40;;;;;;;4.25;1.50;;;18.80;99.90;;;;;;5031033;28;20227;-73
2023/07/28 00:56:08;;;;;;;1.40;1.30;;;18.80;99.90;;;;;;5039379;28;20231;-74
2023/07/28 00:58:35;;;;;;;1.67;1.55;;;18.80;99.90;;;;;;5033637;28;20746;-73
2023/07/28 01:01:02;;;;;;;1.55;1.45;;;18.80;99.90;;;;;;5036850;28;20703;-74
2023/07/28 01:03:31;;;;;;;1.52;1.42;;;18.70;99.90;;;;;;5036924;28;20764;-73
2023/07/28 01:06:08;;;;;;;1.60;1.50;;;18.60;99.90;;;;;;5034859;28;20265;-76
2023/07/28 01:08:39;;;;;;;1.50;1.40;;;18.60;99.90;;;;;;5037167;28;20231;-75
2023/07/28 01:11:06;;;;;;;1.30;1.30;;;18.60;99.90;;;;;;5035514;28;20254;-75
2023/07/28 01:13:34;;;;;;;2.47;1.55;;;18.60;99.90;;;;;;5041888;28;20200;-75
2023/07/28 01:16:01;;;;;;;2.40;1.42;;;18.60;99.90;;;;;;5037853;28;20682;-75
2023/07/28 01:18:30;;;;;;;1.60;1.50;;;18.60;99.90;;;;;;5039607;28;20203;-75
2023/07/28 01:20:59;;;;;;;5.35;1.60;;;18.60;99.90;;;;;;5038402;28;20219;-75
2023/07/28 01:23:36;;;;;;;1.58;1.48;;;18.60;99.90;;;;;;5034886;28;20215;-74
2023/07/28 01:26:06;;;;;;;1.50;1.40;;;18.60;99.90;;;;;;5038943;28;20206;-74
2023/07/28 01:28:36;;;;;;;1.50;1.40;;;18.60;99.90;;;;;;5044980;28;20237;-75
2023/07/28 01:31:04;;;;;;;1.60;1.50;;;18.50;99.90;;;;;;5039000;28;20379;-75
2023/07/28 01:33:31;;;;;;;1.58;1.25;;;18.60;99.90;;;;;;5036842;28;20587;-75
2023/07/28 01:36:00;;;;;;;1.50;1.40;;;18.60;99.90;;;;;;5042502;28;20203;-75
2023/07/28 01:38:27;;;;;;;1.23;1.17;;;18.50;99.90;;;;;;5039716;28;20208;-74
2023/07/28 01:40:54;;;;;;;1.40;1.30;;;18.50;99.90;;;;;;5041491;28;20215;-74
2023/07/28 01:43:21;;;;;;;2.03;1.30;;;18.50;99.90;;;;;;5038364;28;20220;-74
2023/07/28 01:45:49;;;;;;;2.30;1.60;;;18.50;99.90;;;;;;5037833;28;20289;-73
2023/07/28 01:48:16;;;;;;;1.45;1.35;;;18.50;99.90;;;;;;5043498;28;20735;-75
2023/07/28 01:50:43;;;;;;;1.10;1.10;;;18.50;99.90;;;;;;5035303;28;20934;-73
2023/07/28 01:53:10;;;;;;;1.63;1.52;;;18.50;99.90;;;;;;5040306;28;20199;-74
2023/07/28 01:55:37;;;;;;;1.40;1.30;;;18.50;99.90;;;;;;5039371;28;20199;-75
2023/07/28 01:58:04;;;;;;;1.42;1.33;;;18.50;99.90;;;;;;5039893;28;20227;-75
2023/07/28 02:00:31;;;;;;;1.27;1.25;;;18.50;99.90;;;;;;5040238;28;20214;-74
2023/07/28 02:03:02;;;;;;;1.40;1.30;;;18.40;99.90;;;;;;5035197;28;20232;-76
2023/07/28 02:05:29;;;;;;;2.75;1.55;;;18.50;99.90;;;;;;5033471;28;20780;-76
2023/07/28 02:07:56;;;;;;;1.52;1.42;;;18.50;99.90;;;;;;5040877;28;20287;-76
2023/07/28 02:10:24;;;;;;;1.55;1.35;;;18.50;99.90;;;;;;5037985;28;20246;-77
2023/07/28 02:12:51;;;;;;;1.50;1.40;;;18.40;99.90;;;;;;5042996;28;20318;-75
2023/07/28 02:15:18;;;;;;;1.73;1.40;;;18.40;99.90;;;;;;5033156;28;20239;-74
2023/07/28 02:17:45;;;;;;;1.70;1.60;;;18.40;99.90;;;;;;5041311;28;20276;-75
2023/07/28 02:20:15;;;;;;;1.25;1.15;;;18.40;99.90;;;;;;5039321;28;20226;-75
2023/07/28 02:22:42;;;;;;;1.30;1.08;;;18.40;99.90;;;;;;5038462;28;20213;-75
2023/07/28 02:25:10;;;;;;;1.52;1.42;;;18.40;99.90;;;;;;5037570;28;20215;-76
2023/07/28 02:27:38;;;;;;;1.60;1.50;;;18.30;99.90;;;;;;5037662;28;20296;-74
2023/07/28 02:30:06;;;;;;;1.50;1.40;;;18.40;99.90;;;;;;5036884;28;20300;-75
2023/07/28 02:32:33;;;;;;;1.85;1.67;;;18.30;99.90;;;;;;5040567;28;20861;-74
2023/07/28 02:35:00;;;;;;;1.40;1.30;;;18.40;99.90;;;;;;5037849;28;20199;-76
2023/07/28 02:37:28;;;;;;;1.88;1.65;;;18.30;99.90;;;;;;5040158;28;20731;-76
2023/07/28 02:39:55;;;;;;;1.40;1.30;;;18.40;99.90;;;;;;5034098;28;20243;-73
2023/07/28 02:42:23;;;;;;;1.60;1.50;;;18.50;99.90;;;;;;5034384;28;20203;-74
2023/07/28 02:44:50;;;;;;;1.70;1.58;;;18.50;99.90;;;;;;5037491;28;20357;-75
2023/07/28 02:47:17;;;;;;;1.70;1.60;;;18.50;99.90;;;;;;5038327;28;20227;-75
2023/07/28 02:49:45;;;;;;;1.45;1.35;;;18.50;99.90;;;;;;5040883;28;20227;-75
2023/07/28 02:52:12;;;;;;;1.40;1.30;;;18.50;99.90;;;;;;5040177;28;20227;-74
2023/07/28 02:54:40;;;;;;;1.55;1.45;;;18.50;99.90;;;;;;5040315;28;20195;-74
2023/07/28 02:57:07;;;;;;;1.30;1.20;;;18.40;99.90;;;;;;5038926;28;20195;-75
2023/07/28 02:59:34;;;;;;;1.23;1.13;;;18.40;99.90;;;;;;5042289;28;20201;-74
2023/07/28 03:02:01;;;;;;;1.40;1.20;;;18.40;99.90;;;;;;5037504;28;20301;-75
2023/07/28 03:04:29;;;;;;;1.58;1.48;;;18.30;99.90;;;;;;5040171;28;20624;-74
2023/07/28 03:06:56;;;;;;;1.08;0.95;;;18.20;99.90;;;;;;5037359;28;20680;-75
2023/07/28 03:09:23;;;;;;;1.50;1.40;;;18.20;99.90;;;;;;5039370;28;20281;-74
2023/07/28 03:11:51;;;;;;;1.70;1.60;;;18.10;99.90;;;;;;5040705;28;20937;-75
2023/07/28 03:14:18;;;;;;;1.50;1.40;;;18.20;99.90;;;;;;5037584;28;20196;-74
2023/07/28 03:16:45;;;;;;;1.52;1.42;;;18.10;99.90;;;;;;5037502;28;20249;-74
2023/07/28 03:19:12;;;;;;;1.60;1.50;;;18.20;99.90;;;;;;5039957;28;20249;-74
2023/07/28 03:21:39;;;;;;;1.38;1.27;;;18.10;99.90;;;;;;5038440;28;20250;-75
2023/07/28 03:24:06;;;;;;;3.83;1.92;;;18.10;99.90;;;;;;5044165;28;20292;-74
2023/07/28 03:26:33;;;;;;;1.65;1.52;;;18.00;99.90;;;;;;5041369;28;20207;-75
2023/07/28 03:29:02;;;;;;;1.77;1.67;;;18.00;99.90;;;;;;5035837;28;20249;-75
2023/07/28 03:31:29;;;;;;;1.55;1.45;;;18.00;99.90;;;;;;5039303;28;20281;-74
2023/07/28 03:33:56;;;;;;;1.63;1.40;;;18.00;99.90;;;;;;5043351;28;20199;-75
2023/07/28 03:36:23;;;;;;;1.20;1.20;;;17.90;99.90;;;;;;5041501;28;20194;-75
2023/07/28 03:38:49;;;;;;;1.40;1.30;;;17.90;99.90;;;;;;5038820;28;20196;-76
2023/07/28 03:41:17;;;;;;;1.45;1.35;;;17.90;99.90;;;;;;5039768;28;20230;-75
2023/07/28 03:43:43;;;;;;;1.63;1.52;;;17.90;99.90;;;;;;5038546;28;20675;-74
2023/07/28 03:46:12;;;;;;;1.50;1.40;;;17.90;99.90;;;;;;5036259;28;20982;-75
2023/07/28 03:48:39;;;;;;;1.50;1.40;;;17.90;99.90;;;;;;5036058;28;20269;-75
2023/07/28 03:51:06;;;;;;;1.67;1.58;;;17.90;99.90;;;;;;5043527;28;20621;-74
2023/07/28 03:53:34;;;;;;;1.67;1.58;;;17.90;99.90;;;;;;5040577;28;20240;-75
2023/07/28 03:56:02;;;;;;;1.88;1.65;;;17.90;99.90;;;;;;5036519;28;20200;-75
2023/07/28 03:58:29;;;;;;;2.47;1.73;;;17.80;99.90;;;;;;5038751;28;20207;-76
2023/07/28 04:00:56;;;;;;;1.77;1.67;;;17.80;99.90;;;;;;5040582;28;20797;-74
2023/07/28 04:03:24;;;;;;;1.50;1.40;;;17.70;99.90;;;;;;5041822;28;20258;-75
2023/07/28 04:05:51;;;;;;;1.80;1.55;;;17.70;99.90;;;;;;5037007;28;20214;-74
2023/07/28 04:08:18;;;;;;;1.92;1.65;;;17.70;99.90;;;;;;5038595;28;20206;-78
2023/07/28 04:10:45;;;;;;;1.70;1.50;;;17.70;99.90;;;;;;5033800;28;20223;-75
2023/07/28 04:13:12;;;;;;;1.60;1.50;;;17.70;99.90;;;;;;5042292;28;20207;-74
2023/07/28 04:15:39;;;;;;;1.98;1.42;;;17.70;99.90;;;;;;5044432;28;20808;-74
2023/07/28 04:18:06;;;;;;;1.83;1.73;;;17.70;99.90;;;;;;5040967;28;20238;-74
2023/07/28 04:20:34;;;;;;;1.70;1.55;;;17.70;99.90;;;;;;5040438;28;20748;-75
2023/07/28 04:23:01;;;;;;;1.80;1.70;;;17.70;99.90;;;;;;5038408;28;20223;-75
2023/07/28 04:25:28;;;;;;;1.50;1.40;;;17.80;99.90;;;;;;5041589;28;20724;-76
2023/07/28 04:27:56;;;;;;;2.83;2.05;;;17.80;99.90;;;;;;5041146;28;20261;-74
2023/07/28 04:30:23;;;;;;;2.42;1.70;;;17.90;99.90;;;;;;5038785;28;20223;-75
2023/07/28 04:32:50;;;;;;;1.60;1.50;;;18.00;99.90;;;;;;5038613;28;20822;-76
2023/07/28 04:35:17;;;;;;;1.60;1.50;;;18.20;99.90;;;;;;5037103;28;20206;-76
2023/07/28 04:37:45;;;;;;;1.77;1.67;;;18.30;99.90;;;;;;5036935;28;20770;-74
2023/07/28 04:40:13;;;;;;;1.70;1.60;;;18.30;99.90;;;;;;5041760;28;20242;-74
2023/07/28 04:42:40;;;;;;;1.70;1.60;;;18.20;99.90;;;;;;5041471;28;20261;-75
2023/07/28 04:45:08;;;;;;;1.85;1.65;;;18.20;99.90;;;;;;5031605;28;20243;-73
2023/07/28 04:47:35;;;;;;;1.60;1.40;;;18.20;99.90;;;;;;5036260;28;20294;-74
2023/07/28 04:50:02;;;;;;;1.70;1.60;;;18.10;99.90;;;;;;5036469;28;20280;-75
2023/07/28 04:52:29;;;;;;;1.58;1.48;;;18.00;99.90;;;;;;5031734;28;20246;-76
2023/07/28 04:54:57;;;;;;;1.70;1.60;;;18.00;99.90;;;;;;5040844;28;20231;-77
2023/07/28 04:57:24;;;;;;;2.20;1.83;;;18.10;99.90;;;;;;5036480;28;20211;-75
2023/07/28 04:59:51;;;;;;;3.08;1.83;;;18.10;99.90;;;;;;5037022;28;20291;-75
2023/07/28 05:02:19;;;;;;;2.58;1.77;;;18.10;99.90;;;;;;5036156;28;20273;-74
2023/07/28 05:04:46;;;;;;;1.75;1.65;;;18.10;99.90;;;;;;5033545;28;20238;-75
2023/07/28 05:07:13;;;;;;;1.90;1.80;;;17.90;99.90;;;;;;5035728;28;20234;-74
2023/07/28 05:09:40;;;;;;;3.72;1.55;;;17.80;99.90;;;;;;5038151;28;20257;-74
2023/07/28 05:12:08;;;;;;;2.20;1.60;;;17.80;99.90;;;;;;5035050;28;20211;-74
2023/07/28 05:14:35;;;;;;;1.70;1.60;;;17.90;99.90;;;;;;5036009;28;20256;-74
2023/07/28 05:17:02;;;;;;;2.33;1.60;;;18.00;99.90;;;;;;5032237;28;20821;-74
2023/07/28 05:19:29;;;;;;;3.35;2.40;;;18.00;99.90;;;;;;5036353;28;20651;-74
2023/07/28 05:21:56;;;;;;;3.78;2.40;;;18.00;99.90;;;;;;5034089;28;20288;-74
2023/07/28 05:24:23;;;;;;;2.85;2.33;;;18.00;99.90;;;;;;5036232;28;20625;-74
2023/07/28 05:26:50;;;;;;;2.30;2.00;;;18.00;99.90;;;;;;5036283;28;20249;-75
2023/07/28 05:29:19;;;;;;;2.30;2.00;;;18.20;99.90;;;;;;5035991;28;20252;-75
2023/07/28 05:31:46;;;;;;;3.20;2.25;;;18.40;99.90;;;;;;5038239;28;20624;-75
2023/07/28 05:34:14;;;;;;;2.22;1.88;;;18.60;99.90;;;;;;5045044;28;20211;-76
2023/07/28 05:36:42;;;;;;;1.98;1.83;;;18.80;99.90;;;;;;5045870;28;20294;-75
2023/07/28 05:39:08;;;;;;;2.50;2.08;;;19.10;99.90;;;;;;5036937;28;20230;-76
2023/07/28 05:41:36;;;;;;;2.05;1.92;;;19.40;99.90;;;;;;5031440;28;20223;-76
2023/07/28 05:44:02;;;;;;;2.58;1.92;;;19.60;99.90;;;;;;5033870;28;20246;-75
2023/07/28 05:46:31;;;;;;;2.25;2.03;;;19.80;99.90;;;;;;5033257;28;20265;-76
2023/07/28 05:48:59;;;;;;;1.70;1.60;;;19.80;99.90;;;;;;5035443;28;20203;-75
2023/07/28 05:51:29;;;;;;;1.95;1.70;;;19.80;99.90;;;;;;5039182;28;20219;-76
2023/07/28 05:53:56;;;;;;;2.10;1.90;;;19.70;99.90;;;;;;5036183;28;20657;-77
2023/07/28 05:56:26;;;;;;;4.10;1.70;;;19.70;99.90;;;;;;5042004;28;20264;-77
2023/07/28 05:58:53;;;;;;;2.67;2.13;;;19.70;99.90;;;;;;5041239;28;20282;-77
2023/07/28 06:01:20;;;;;;;3.42;2.20;;;19.80;99.90;;;;;;5035832;28;20223;-75
2023/07/28 06:03:49;;;;;;;2.45;2.25;;;19.80;99.90;;;;;;5032847;28;20301;-75
2023/07/28 06:06:16;;;;;;;2.25;2.05;;;19.80;99.90;;;;;;5035673;28;20673;-76
2023/07/28 06:08:44;;;;;;;2.30;2.10;;;19.60;99.90;;;;;;5037246;28;20199;-75
2023/07/28 06:11:12;;;;;;;2.42;2.22;;;19.60;99.90;;;;;;5037751;28;20235;-76
2023/07/28 06:13:41;;;;;;;3.45;2.00;;;19.70;99.90;;;;;;5042594;28;20608;-78
2023/07/28 06:18:50;;;;;;;3.90;2.00;;;20.10;99.90;;;;;;5041547;28;20199;-75
2023/07/28 06:24:06;;;;;;;5.30;2.70;;;20.50;99.90;;;;;;5039187;28;20707;-76
2023/07/28 06:26:39;;;;;;;5.32;3.25;;;20.70;99.90;;;;;;5040339;28;20265;-78
2023/07/28 06:29:09;;;;;;;3.97;2.83;;;20.80;99.90;;;;;;5042406;28;20199;-76
2023/07/28 06:31:41;;;;;;;4.70;2.20;;;21.00;99.90;;;;;;5041004;28;20310;-76
2023/07/28 06:34:24;;;;;;;3.13;2.15;;;21.30;99.90;;;;;;5043335;28;20203;-76
2023/07/28 06:36:57;;;;;;;2.60;2.00;;;21.60;99.90;;;;;;5041071;28;20253;-76
2023/07/28 06:39:30;;;;;;;3.63;2.60;;;21.80;99.90;;;;;;5043256;28;20803;-76
2023/07/28 06:42:23;;;;;;;7.40;2.47;;;21.80;99.90;;;;;;5045816;28;20223;-78
2023/07/28 06:45:21;;;;;;;5.03;2.70;;;21.50;99.90;;;;;;5042601;28;20218;-77
2023/07/28 06:48:00;;;;;;;4.88;3.00;;;21.40;99.90;;;;;;5043033;28;20203;-76
2023/07/28 06:50:32;;;;;;;2.67;2.28;;;21.10;99.90;;;;;;5035089;28;20222;-75
2023/07/28 06:53:02;;;;;;;3.67;2.55;;;21.10;99.90;;;;;;5045410;28;20270;-75
2023/07/28 06:55:29;;;;;;;3.58;2.63;;;21.20;99.90;;;;;;5044462;28;20286;-77
2023/07/28 06:57:56;;;;;;;2.70;2.50;;;21.30;99.90;;;;;;5040634;28;20582;-75
2023/07/28 07:00:23;;;;;;;2.70;2.50;;;21.40;99.90;;;;;;5039660;28;20280;-75
2023/07/28 07:05:54;;;;;;;3.08;2.78;;;21.50;99.90;;;;;;5041009;28;20219;-74
2023/07/28 07:08:21;;;;;;;4.13;2.92;;;21.40;99.90;;;;;;5042598;28;20203;-78
2023/07/28 07:10:57;;;;;;;2.72;2.50;;;21.50;99.90;;;;;;5044392;28;20222;-75
2023/07/28 07:16:36;;;;;;;2.50;2.13;;;21.80;99.90;;;;;;5035612;28;20211;-75
2023/07/28 07:19:20;;;;;;;2.78;2.45;;;21.80;99.90;;;;;;5045432;28;20890;-74
2023/07/28 07:21:50;;;;;;;3.13;2.38;;;22.00;99.90;;;;;;5044140;28;20215;-75
2023/07/28 07:24:37;;;;;;;2.80;2.60;;;22.10;99.90;;;;;;5038102;28;20223;-75
2023/07/28 07:27:09;;;;;;;2.40;2.20;;;22.40;99.90;;;;;;5041368;28;20257;-78
2023/07/28 07:29:36;;;;;;;2.25;2.05;;;22.50;99.90;;;;;;5040675;28;20681;-76
2023/07/28 07:32:16;;;;;;;3.83;2.40;;;22.50;99.90;;;;;;5038347;28;20254;-75
2023/07/28 07:34:50;;;;;;;2.90;2.10;;;22.60;99.90;;;;;;5041420;28;20200;-75
2023/07/28 07:37:24;;;;;;;2.42;1.90;;;22.50;99.90;;;;;;5043675;28;20203;-75
2023/07/28 07:39:52;;;;;;;3.08;2.30;;;22.60;99.90;;;;;;5038128;28;20732;-75
2023/07/28 07:42:25;;;;;;;3.17;2.20;;;22.60;99.90;;;;;;5038227;28;20226;-75
2023/07/28 07:48:01;;;;;;;3.03;2.05;;;22.90;99.90;;;;;;5035297;28;20664;-76
2023/07/28 07:50:28;;;;;;;2.65;1.90;;;23.10;99.90;;;;;;5039032;28;20215;-77
2023/07/28 07:53:04;;;;;;;3.35;2.25;;;23.40;99.90;;;;;;5039836;28;20264;-76
2023/07/28 07:55:31;;;;;;;3.65;2.22;;;23.40;99.90;;;;;;5040302;28;20183;-78
2023/07/28 07:57:59;;;;;;;2.58;2.38;;;23.60;99.90;;;;;;5042809;28;20191;-74
2023/07/28 08:00:27;;;;;;;3.55;2.17;;;23.70;99.90;;;;;;5042972;28;20230;-76
2023/07/28 08:02:58;;;;;;;3.60;2.25;;;23.70;99.90;;;;;;5042198;28;20199;-76
2023/07/28 08:05:25;;;;;;;2.33;2.00;;;23.70;99.90;;;;;;5035609;28;20698;-75
2023/07/28 08:07:54;;;;;;;2.20;2.00;;;23.60;99.90;;;;;;5034110;28;20203;-77
2023/07/28 08:10:23;;;;;;;3.53;2.00;;;23.50;99.90;;;;;;5034171;28;20222;-77
2023/07/28 08:12:50;;;;;;;1.90;1.80;;;23.30;99.90;;;;;;5038817;28;20194;-77
2023/07/28 08:15:20;;;;;;;2.40;2.20;;;23.40;99.90;;;;;;5036925;28;20416;-75
2023/07/28 08:17:49;;;;;;;3.13;2.20;;;23.70;99.90;;;;;;5044383;28;20198;-76
2023/07/28 08:20:23;;;;;;;2.47;2.28;;;23.80;99.90;;;;;;5021757;28;20744;-75
2023/07/28 08:22:50;;;;;;;2.65;2.40;;;23.80;99.90;;;;;;5033322;28;20196;-77
2023/07/28 08:25:22;;;;;;;2.28;2.08;;;23.60;99.90;;;;;;5036422;28;20230;-77
2023/07/28 08:27:54;;;;;;;3.03;2.40;;;23.60;99.90;;;;;;5041919;28;20199;-76
2023/07/28 08:30:28;;;;;;;2.97;2.28;;;23.60;99.90;;;;;;5037974;28;20729;-75
2023/07/28 08:32:57;;;;;;;2.30;2.10;;;23.80;99.90;;;;;;5041194;28;20208;-75
2023/07/28 08:38:25;;;;;;;2.60;2.13;;;24.40;99.90;;;;;;5039841;28;20203;-76
2023/07/28 08:40:52;;;;;;;2.30;2.10;;;24.30;99.90;;;;;;5036760;28;20221;-76
2023/07/28 08:43:20;;;;;;;2.33;2.13;;;24.30;99.90;;;;;;5032670;28;20230;-75
2023/07/28 08:46:03;;;;;;;2.05;1.95;;;24.50;99.90;;;;;;5035516;28;20269;-76
2023/07/28 08:48:38;;;;;;;2.40;2.20;;;24.50;99.90;;;;;;5040745;28;20210;-78
2023/07/28 08:51:21;;;;;;;2.70;2.50;;;24.80;99.90;;;;;;5042156;28;20222;-77
2023/07/28 08:56:37;;;;;;;2.65;2.20;;;24.90;99.90;;;;;;4997108;28;20212;-77
2023/07/28 08:59:05;;;;;;;2.30;2.08;;;25.00;99.90;;;;;;4992210;28;20855;-77
2023/07/28 09:01:33;;;;;;;3.33;2.20;;;24.80;99.90;;;;;;5007931;28;20250;-77
2023/07/28 09:04:02;;;;;;;1.98;1.85;;;24.70;99.90;;;;;;5038207;28;20727;-77
2023/07/28 09:06:31;;;;;;;3.92;2.30;;;24.60;99.90;;;;;;5036375;28;20219;-76
2023/07/28 09:08:58;;;;;;;2.15;1.95;;;24.90;99.90;;;;;;5034678;28;20202;-77
2023/07/28 09:11:26;;;;;;;2.47;2.05;;;25.20;99.90;;;;;;5034208;28;20251;-76
2023/07/28 09:13:55;;;;;;;2.22;2.05;;;25.10;99.90;;;;;;5031874;28;20202;-77
2023/07/28 09:16:26;;;;;;;2.78;2.10;;;25.00;99.90;;;;;;5030346;28;20203;-76
2023/07/28 09:19:06;;;;;;;2.42;2.10;;;25.00;99.90;;;;;;5033394;28;20854;-76
2023/07/28 09:21:34;;;;;;;3.55;2.25;;;25.00;99.90;;;;;;5033887;28;20306;-76
2023/07/28 09:24:10;;;;;;;2.17;1.98;;;25.20;99.90;;;;;;5033814;28;20202;-76
2023/07/28 09:26:39;;;;;;;2.20;2.00;;;25.60;99.90;;;;;;5035578;28;20248;-76
2023/07/28 09:29:17;;;;;;;2.47;2.13;;;25.90;99.90;;;;;;5038204;28;20261;-75
2023/07/28 09:31:47;;;;;;;2.40;2.10;;;25.90;99.90;;;;;;5029264;28;20222;-76
2023/07/28 09:34:23;;;;;;;2.40;2.20;;;26.00;99.90;;;;;;5032365;28;20215;-75
2023/07/28 09:36:50;;;;;;;2.38;2.10;;;26.20;99.90;;;;;;5023680;28;20269;-76
2023/07/28 09:39:19;;;;;;;2.10;1.90;;;26.20;99.90;;;;;;5029951;28;20527;-76
2023/07/28 09:41:47;;;;;;;2.00;1.88;;;26.20;99.90;;;;;;5026005;28;20223;-75
2023/07/28 09:44:16;;;;;;;4.05;2.42;;;26.20;99.90;;;;;;5025375;28;20729;-77
2023/07/28 09:46:51;;;;;;;2.40;2.00;;;26.20;99.90;;;;;;5028759;28;20215;-76
2023/07/28 09:49:22;;;;;;;2.75;2.08;;;26.20;99.90;;;;;;5034063;28;20205;-76
2023/07/28 09:51:54;;;;;;;3.70;2.38;;;26.20;99.90;;;;;;5034793;28;20284;-76
2023/07/28 09:54:27;;;;;;;2.63;2.17;;;26.20;99.90;;;;;;5031009;28;20210;-75
2023/07/28 09:56:57;;;;;;;2.70;2.35;;;26.20;99.90;;;;;;5032390;28;20191;-76
2023/07/28 09:59:46;;;;;;;2.08;1.88;;;26.20;99.90;;;;;;5034304;28;20953;-76
2023/07/28 10:02:15;;;;;;;4.07;2.05;;;26.20;99.90;;;;;;5034443;28;20258;-76
2023/07/28 10:04:43;;;;;;;2.63;2.35;;;26.20;99.90;;;;;;5030801;28;20273;-76
2023/07/28 10:07:10;;;;;;;2.22;2.00;;;26.20;99.90;;;;;;5033469;28;20620;-76
2023/07/28 10:09:38;;;;;;;1.95;1.80;;;26.20;99.90;;;;;;5034981;28;20219;-76
2023/07/28 10:12:05;;;;;;;2.00;1.83;;;26.30;99.90;;;;;;5036016;28;20309;-75
2023/07/28 10:14:37;;;;;;;2.92;2.03;;;26.50;99.90;;;;;;5034927;28;20204;-75
2023/07/28 10:17:05;;;;;;;2.40;2.17;;;26.90;99.90;;;;;;5037107;28;20191;-75
2023/07/28 10:19:41;;;;;;;2.83;2.30;;;27.00;99.90;;;;;;5039775;28;20195;-76
2023/07/28 10:22:09;;;;;;;3.85;2.53;;;27.20;99.90;;;;;;5035012;28;20219;-75
2023/07/28 10:24:53;;;;;;;3.47;2.63;;;27.30;99.90;;;;;;5041700;28;20211;-75
2023/07/28 10:27:35;;;;;;;3.13;2.63;;;27.30;99.90;;;;;;5041893;28;20684;-76
2023/07/28 10:30:04;;;;;;;6.80;2.55;;;27.20;99.90;;;;;;5040025;28;20203;-76
2023/07/28 10:32:38;;;;;;;4.00;2.22;;;27.20;99.90;;;;;;5039301;28;20199;-75
2023/07/28 10:35:10;;;;;;;2.55;2.00;;;27.10;99.90;;;;;;5045617;28;20294;-76
2023/07/28 10:37:37;;;;;;;4.00;2.22;;;27.10;99.90;;;;;;5040675;28;20756;-76
2023/07/28 10:40:27;;;;;;;3.72;2.10;;;27.10;99.90;;;;;;5037011;28;20579;-77
2023/07/28 10:42:55;;;;;;;2.58;2.33;;;27.30;99.90;;;;;;5039645;28;20196;-76
2023/07/28 10:45:24;;;;;;;2.53;2.28;;;27.30;99.90;;;;;;5037870;28;20740;-76
2023/07/28 10:47:55;;;;;;;2.33;2.10;;;27.30;99.90;;;;;;5038987;28;20199;-73
2023/07/28 10:50:24;;;;;;;2.42;2.20;;;27.40;99.90;;;;;;5039086;28;20230;-76
2023/07/28 10:52:54;;;;;;;2.90;2.40;;;27.40;99.90;;;;;;5035694;28;20203;-75
2023/07/28 10:55:23;;;;;;;2.20;2.00;;;27.40;99.90;;;;;;5037395;28;20740;-78
2023/07/28 10:57:51;;;;;;;3.50;2.17;;;27.40;99.90;;;;;;5044167;28;20257;-76
2023/07/28 11:00:21;;;;;;;2.30;2.10;;;27.50;99.90;;;;;;5038580;28;20769;-76
2023/07/28 11:02:51;;;;;;;1.85;1.70;;;27.60;99.90;;;;;;5041135;28;20207;-76
2023/07/28 11:05:31;;;;;;;2.47;2.25;;;27.70;99.90;;;;;;5044344;28;20206;-75
2023/07/28 11:08:03;;;;;;;2.80;2.10;;;27.90;99.90;;;;;;5040559;28;20261;-76
2023/07/28 11:10:32;;;;;;;3.97;2.30;;;27.80;99.90;;;;;;5041843;28;20223;-76
2023/07/28 11:13:01;;;;;;;2.88;2.50;;;27.80;99.90;;;;;;5041181;28;20214;-77
2023/07/28 11:15:31;;;;;;;5.13;2.22;;;27.60;99.90;;;;;;5047229;28;20206;-77
2023/07/28 11:18:01;;;;;;;4.25;2.28;;;27.70;99.90;;;;;;5041508;28;20661;-75
2023/07/28 11:20:31;;;;;;;4.32;2.00;;;27.70;99.90;;;;;;5037977;28;20225;-76
2023/07/28 11:23:00;;;;;;;2.60;2.20;;;27.80;99.90;;;;;;5021251;28;20207;-77
2023/07/28 11:25:29;;;;;;;2.30;2.10;;;27.70;99.90;;;;;;5042091;28;20609;-77
2023/07/28 11:27:59;;;;;;;2.30;2.10;;;27.50;99.90;;;;;;5043778;28;20225;-75
2023/07/28 11:30:26;;;;;;;3.40;2.10;;;27.60;99.90;;;;;;5043969;28;20333;-76
2023/07/28 11:32:55;;;;;;;2.40;1.90;;;27.90;99.90;;;;;;5042039;28;20255;-77
2023/07/28 11:35:23;;;;;;;2.35;2.10;;;28.00;99.90;;;;;;5040961;28;20192;-77
2023/07/28 11:37:53;;;;;;;2.20;1.88;;;28.10;99.90;;;;;;5045812;28;20619;-78
2023/07/28 11:40:23;;;;;;;2.95;1.95;;;28.10;99.90;;;;;;5038884;28;20227;-77
2023/07/28 11:42:52;;;;;;;1.92;1.83;;;28.40;99.90;;;;;;5043706;28;20257;-76
2023/07/28 11:45:22;;;;;;;2.33;2.00;;;28.50;99.90;;;;;;5040840;28;20230;-76
2023/07/28 11:47:57;;;;;;;2.72;2.20;;;28.50;99.90;;;;;;5026158;28;20223;-75
2023/07/28 11:50:26;;;;;;;2.30;2.10;;;28.40;99.90;;;;;;5040982;28;20214;-77
2023/07/28 11:52:56;;;;;;;2.00;1.80;;;28.40;99.90;;;;;;5039945;28;20281;-75
2023/07/28 11:55:23;;;;;;;2.08;1.73;;;28.20;99.90;;;;;;5039679;28;20199;-76
2023/07/28 11:57:52;;;;;;;2.15;1.90;;;28.30;99.90;;;;;;5039923;28;20230;-74
2023/07/28 12:00:26;;;;;;;4.50;2.22;;;28.30;99.90;;;;;;5039025;28;20274;-75
2023/07/28 12:03:03;;;;;;;2.30;1.95;;;28.10;99.90;;;;;;5038030;28;20250;-76
2023/07/28 12:05:30;;;;;;;3.05;2.08;;;28.20;99.90;;;;;;5040852;28;20230;-76
2023/07/28 12:07:59;;;;;;;2.35;1.75;;;28.20;99.90;;;;;;5043635;28;20790;-75
2023/07/28 12:10:27;;;;;;;2.30;2.17;;;28.40;99.90;;;;;;5034338;28;20223;-76
2023/07/28 12:12:54;;;;;;;6.30;2.17;;;28.20;99.90;;;;;;5035142;28;20200;-76
2023/07/28 12:15:24;;;;;;;4.13;2.30;;;28.00;99.90;;;;;;5042012;28;20207;-77
2023/07/28 12:18:16;;;;;;;3.08;2.13;;;27.70;99.90;;;;;;5035644;28;20193;-76
2023/07/28 12:20:46;;;;;;;2.72;2.28;;;27.80;99.90;;;;;;5035416;28;20254;-76
2023/07/28 12:23:19;;;;;;;2.50;2.22;;;27.70;99.90;;;;;;5038285;28;20717;-76
2023/07/28 12:25:47;;;;;;;2.50;2.20;;;27.80;99.90;;;;;;5036246;28;20203;-77
2023/07/28 12:28:15;;;;;;;2.03;1.88;;;27.70;99.90;;;;;;5041020;28;20207;-76
2023/07/28 12:30:43;;;;;;;2.88;1.98;;;27.70;99.90;;;;;;5040103;28;20734;-75
2023/07/28 12:33:10;;;;;;;3.70;1.92;;;27.90;99.90;;;;;;5041736;28;20202;-76
2023/07/28 12:35:38;;;;;;;1.95;1.80;;;27.90;99.90;;;;;;5037297;28;20230;-75
2023/07/28 12:38:07;;;;;;;2.17;2.03;;;28.00;99.90;;;;;;5041757;28;20199;-76
2023/07/28 12:40:36;;;;;;;3.20;1.80;;;27.90;99.90;;;;;;5036960;28;20219;-75
2023/07/28 12:43:04;;;;;;;1.70;1.60;;;27.80;99.90;;;;;;5038582;28;20227;-76
2023/07/28 12:45:31;;;;;;;2.30;2.00;;;27.90;99.90;;;;;;5040863;28;20227;-76
2023/07/28 12:48:00;;;;;;;3.58;2.20;;;27.90;99.90;;;;;;5040615;28;20253;-74
2023/07/28 12:50:27;;;;;;;3.13;2.05;;;27.80;99.90;;;;;;5037575;28;20643;-76
2023/07/28 12:52:53;;;;;;;2.50;2.10;;;27.50;99.90;;;;;;5041719;28;20549;-76
2023/07/28 12:55:22;;;;;;;2.55;2.10;;;27.40;99.90;;;;;;5041913;28;20625;-75
2023/07/28 12:57:50;;;;;;;2.33;2.15;;;27.50;99.90;;;;;;5033658;28;20235;-77
2023/07/28 13:00:17;;;;;;;2.60;2.38;;;27.70;99.90;;;;;;5037280;28;20226;-76
2023/07/28 13:02:47;;;;;;;2.58;2.13;;;27.80;99.90;;;;;;5042537;28;20195;-76
2023/07/28 13:05:17;;;;;;;2.72;2.00;;;27.80;99.90;;;;;;5041463;28;20210;-76
2023/07/28 13:07:44;;;;;;;3.75;2.35;;;27.80;99.90;;;;;;5040059;28;20214;-74
2023/07/28 13:10:12;;;;;;;2.35;2.15;;;27.60;99.90;;;;;;5037613;28;20751;-75
2023/07/28 13:12:47;;;;;;;2.90;2.10;;;27.50;99.90;;;;;;5040475;28;20200;-77
2023/07/28 13:15:29;;;;;;;3.42;2.15;;;27.40;99.90;;;;;;5045973;28;20203;-76
2023/07/28 13:18:05;;;;;;;3.58;1.90;;;27.40;99.90;;;;;;5040901;28;20198;-76
2023/07/28 13:20:37;;;;;;;3.88;2.40;;;27.40;99.90;;;;;;4994358;28;20230;-76